Time;durP1;ratioP1;P1;durP2;ratioP2;P2;SDS_P1;SDS_P2;PMS_P1;PMS_P2;Temp;Humidity;BMP_temperature;BMP_pressure;BME280_temperature;BME280_humidity;BME280_pressure;Samples;Min_cycle;Max_cycle;Signal;HPM_P1;HPM_P2
2023/09/27 00:00:19;;;;;;;;;14.00;13.00;;;;;19.68;72.38;101505.44;5042823;28;45442;-74
2023/09/27 00:02:44;;;;;;;;;12.50;11.75;;;;;19.72;72.36;101522.38;5037311;28;45547;-74
2023/09/27 00:05:11;;;;;;;;;14.00;12.75;;;;;19.53;72.34;101504.47;5052692;28;46531;-74
2023/09/27 00:07:38;;;;;;;;;13.50;12.25;;;;;19.69;72.59;101533.38;5039407;28;46614;-74
2023/09/27 00:10:05;;;;;;;;;14.25;14.25;;;;;19.68;72.61;101532.50;5026275;28;45598;-74
2023/09/27 00:12:32;;;;;;;;;12.00;11.00;;;;;19.43;72.73;101490.59;5039527;28;45390;-74
2023/09/27 00:14:57;;;;;;;;;11.50;11.25;;;;;19.44;72.72;101483.34;5041624;28;45979;-74
2023/09/27 00:17:23;;;;;;;;;13.50;12.00;;;;;19.51;72.93;101503.72;5057968;28;45387;-74
2023/09/27 00:19:48;;;;;;;;;14.75;12.75;;;;;19.55;72.94;101507.97;5057042;28;45401;-74
2023/09/27 00:22:14;;;;;;;;;12.00;10.25;;;;;19.64;72.70;101530.94;5039458;28;45371;-74
2023/09/27 00:24:39;;;;;;;;;10.50;10.50;;;;;19.44;72.74;101486.94;5037849;28;48635;-74
2023/09/27 00:27:05;;;;;;;;;11.75;10.75;;;;;19.53;73.01;101501.78;5052278;28;45371;-74
2023/09/27 00:29:30;;;;;;;;;12.25;11.00;;;;;19.58;73.05;101512.34;5040913;28;46604;-74
2023/09/27 00:31:56;;;;;;;;;11.25;11.25;;;;;19.61;73.18;101513.03;5050178;28;45321;-74
2023/09/27 00:34:21;;;;;;;;;13.50;11.50;;;;;19.49;73.09;101491.19;5038920;28;45597;-74
2023/09/27 00:36:46;;;;;;;;;8.75;7.75;;;;;19.51;73.16;101506.41;5049583;28;45410;-74
2023/09/27 00:39:12;;;;;;;;;10.25;8.75;;;;;19.54;73.49;101516.19;5043112;28;45305;-74
2023/09/27 00:41:37;;;;;;;;;8.00;7.75;;;;;19.38;73.00;101483.72;5039276;28;45297;-74
2023/09/27 00:44:02;;;;;;;;;13.50;11.00;;;;;19.55;73.00;101507.97;5034104;28;46795;-74
2023/09/27 00:46:28;;;;;;;;;10.00;10.00;;;;;19.58;72.99;101521.34;5052071;28;45315;-74
2023/09/27 00:48:54;;;;;;;;;9.00;7.50;;;;;19.33;72.93;101473.16;5038201;28;45432;-74
2023/09/27 00:51:19;;;;;;;;;10.75;8.25;;;;;19.37;72.89;101476.53;5030527;28;45400;-74
2023/09/27 00:53:48;;;;;;;;;9.25;8.00;;;;;19.32;72.98;101468.69;5040598;28;47094;-74
2023/09/27 00:56:13;;;;;;;;;10.50;8.75;;;;;19.50;73.32;101499.25;5030674;28;45848;-74
2023/09/27 00:58:39;;;;;;;;;6.00;6.00;;;;;19.38;72.82;101483.72;5038588;28;45401;-74
2023/09/27 01:01:05;;;;;;;;;9.75;8.25;;;;;19.50;72.83;101498.38;5037006;28;45586;-74
2023/09/27 01:03:32;;;;;;;;;11.50;11.00;;;;;19.53;72.98;101501.78;5026007;28;47291;-74
2023/09/27 01:05:58;;;;;;;;;7.25;7.00;;;;;19.36;73.36;101478.38;5053497;28;45302;-74
2023/09/27 01:08:23;;;;;;;;;8.25;8.25;;;;;19.46;73.38;101497.66;5035988;28;45404;-74
2023/09/27 01:10:48;;;;;;;;;9.00;8.75;;;;;19.24;73.11;101452.91;5050278;28;45507;-74
2023/09/27 01:13:14;;;;;;;;;9.75;9.25;;;;;19.30;72.92;101469.75;5039452;28;46143;-74
2023/09/27 01:15:41;;;;;;;;;8.00;7.50;;;;;19.49;73.32;101499.31;5041122;28;45468;-74
2023/09/27 01:18:06;;;;;;;;;7.00;7.00;;;;;19.31;73.45;101474.19;5059382;28;45381;-74
2023/09/27 01:20:33;;;;;;;;;12.50;8.25;;;;;19.30;73.35;101469.75;5042159;28;45454;-74
2023/09/27 01:22:59;;;;;;;;;9.50;9.50;;;;;19.22;73.50;101449.38;5042018;28;46135;-74
2023/09/27 01:25:35;;;;;;;;;9.75;7.50;;;;;19.46;73.27;101494.09;5042004;28;45537;-74
2023/09/27 01:28:11;;;;;;;;;9.50;8.75;;;;;19.17;73.43;101451.50;5038918;28;45358;-74
2023/09/27 01:30:38;;;;;;;;;10.25;8.00;;;;;19.42;73.08;101501.50;5035251;28;45725;-74
2023/09/27 01:33:10;;;;;;;;;10.50;9.75;;;;;19.40;73.52;101498.03;5038492;28;47309;-74
2023/09/27 01:35:38;;;;;;;;;10.25;8.50;;;;;19.34;73.51;101495.66;5054879;28;45322;-74
2023/09/27 01:38:05;;;;;;;;;7.50;7.50;;;;;19.20;73.68;101478.38;5040758;28;45384;-74
2023/09/27 01:40:30;;;;;;;;;12.25;11.00;;;;;19.17;73.45;101474.97;5041884;28;45525;-74
2023/09/27 01:43:01;;;;;;;;;9.00;9.00;;;;;19.29;73.79;101495.06;5025808;28;47076;-74
2023/09/27 01:45:27;;;;;;;;;12.50;7.00;;;;;19.20;73.54;101472.09;5028296;28;45953;-74
2023/09/27 01:47:53;;;;;;;;;10.25;8.75;;;;;19.22;73.36;101472.88;5051936;28;46789;-74
2023/09/27 01:50:19;;;;;;;;;7.50;7.50;;;;;19.32;73.59;101489.47;5041328;28;45672;-74
2023/09/27 01:52:46;;;;;;;;;7.50;6.75;;;;;19.22;73.26;101475.59;5054633;28;46273;-74
2023/09/27 01:55:11;;;;;;;;;6.50;6.50;;;;;19.15;73.05;101463.38;5060186;28;45531;-74
2023/09/27 01:57:37;;;;;;;;;8.75;7.50;;;;;19.25;73.35;101480.84;5057100;28;45597;-74
2023/09/27 02:00:08;;;;;;;;;9.50;9.50;;;;;19.29;73.57;101493.22;5046274;28;45502;-74
2023/09/27 02:02:34;;;;;;;;;10.00;8.25;;;;;19.12;73.38;101475.22;5042382;28;46364;-74
2023/09/27 02:04:59;;;;;;;;;8.50;8.50;;;;;19.15;73.63;101479.63;5041408;28;45600;-74
2023/09/27 02:07:24;;;;;;;;;9.50;9.50;;;;;19.11;73.55;101472.63;5041507;28;45461;-74
2023/09/27 02:09:50;;;;;;;;;9.00;8.25;;;;;19.28;73.49;101502.31;5041327;28;45351;-74
2023/09/27 02:12:15;;;;;;;;;7.75;7.75;;;;;19.17;73.77;101488.50;5041118;28;45363;-74
2023/09/27 02:14:40;;;;;;;;;10.00;8.25;;;;;19.33;73.76;101510.16;5038319;28;45538;-74
2023/09/27 02:17:07;;;;;;;;;9.00;9.00;;;;;19.20;73.74;101491.91;5043018;28;45394;-74
2023/09/27 02:19:33;;;;;;;;;7.75;7.50;;;;;19.21;73.55;101490.97;5061166;28;45446;-74
2023/09/27 02:21:58;;;;;;;;;10.00;7.00;;;;;19.11;73.63;101473.50;5023291;28;46991;-74
2023/09/27 02:24:24;;;;;;;;;10.75;7.00;;;;;19.22;73.50;101491.81;5057464;28;45430;-74
2023/09/27 02:26:49;;;;;;;;;6.25;6.25;;;;;19.22;73.88;101492.69;5039407;28;45493;-74
2023/09/27 02:29:15;;;;;;;;;8.25;8.25;;;;;19.23;73.78;101494.44;5050790;28;45344;-74
2023/09/27 02:31:41;;;;;;;;;11.00;8.25;;;;;19.13;73.56;101477.00;5053771;28;45362;-74
2023/09/27 02:34:08;;;;;;;;;10.25;7.75;;;;;19.13;73.78;101462.56;5036680;28;45561;-74
2023/09/27 02:36:33;;;;;;;;;9.75;8.50;;;;;19.11;73.78;101467.19;5041032;28;45324;-74
2023/09/27 02:38:58;;;;;;;;;9.50;8.25;;;;;19.04;73.58;101459.44;5040888;28;45596;-74
2023/09/27 02:41:24;;;;;;;;;9.00;8.50;;;;;19.14;73.88;101484.13;5022504;28;48272;-74
2023/09/27 02:43:49;;;;;;;;;8.00;6.50;;;;;19.13;73.94;101476.09;5034593;28;45461;-74
2023/09/27 02:46:15;;;;;;;;;11.00;7.50;;;;;19.05;73.76;101460.31;5035990;28;45422;-74
2023/09/27 02:48:40;;;;;;;;;9.00;8.00;;;;;19.19;73.90;101492.00;5028281;28;45542;-73
2023/09/27 02:51:05;;;;;;;;;12.25;8.25;;;;;18.87;74.24;101441.44;5030309;28;48191;-74
2023/09/27 02:53:31;;;;;;;;;7.75;6.75;;;;;19.12;74.29;101485.19;5058392;28;45508;-74
2023/09/27 02:55:57;;;;;;;;;6.75;6.75;;;;;19.10;74.22;101496.09;5053118;28;45474;-74
2023/09/27 02:58:22;;;;;;;;;7.25;7.25;;;;;18.84;74.30;101452.47;5040202;28;45539;-74
2023/09/27 03:00:48;;;;;;;;;8.50;8.50;;;;;18.94;74.75;101484.38;5050864;28;49423;-74
2023/09/27 03:03:13;;;;;;;;;8.00;6.50;;;;;19.01;74.25;101493.91;5028533;28;45797;-74
2023/09/27 03:05:39;;;;;;;;;6.00;6.00;;;;;19.02;74.42;101491.09;5055310;28;45407;-74
2023/09/27 03:08:05;;;;;;;;;8.50;7.00;;;;;18.89;74.90;101468.41;5039171;28;45827;-74
2023/09/27 03:10:31;;;;;;;;;6.75;6.75;;;;;18.81;74.52;101449.88;5038929;28;48528;-74
2023/09/27 03:12:56;;;;;;;;;7.00;7.00;;;;;18.70;74.80;101430.66;5022864;28;45520;-74
2023/09/27 03:15:22;;;;;;;;;10.75;9.25;;;;;18.82;75.11;101451.63;5045798;28;45276;-74
2023/09/27 03:17:48;;;;;;;;;9.50;7.25;;;;;18.87;74.69;101462.22;5059862;28;45415;-74
2023/09/27 03:20:17;;;;;;;;;10.00;10.00;;;;;18.99;74.94;101483.16;5054167;28;45387;-74
2023/09/27 03:22:43;;;;;;;;;10.25;8.00;;;;;18.99;75.18;101476.88;5041766;28;45641;-74
2023/09/27 03:25:09;;;;;;;;;8.25;8.25;;;;;18.75;75.17;101427.72;5053792;28;45381;-74
2023/09/27 03:27:36;;;;;;;;;8.25;8.25;;;;;18.77;74.91;101437.47;5040062;28;45298;-74
2023/09/27 03:30:03;;;;;;;;;10.00;10.00;;;;;18.94;75.36;101457.34;5056096;28;45642;-74
2023/09/27 03:32:28;;;;;;;;;12.25;9.50;;;;;18.77;75.32;101434.78;5028167;28;45381;-74
2023/09/27 03:34:54;;;;;;;;;11.50;9.75;;;;;18.75;74.79;101434.00;5059761;28;45656;-74
2023/09/27 03:37:20;;;;;;;;;12.25;10.00;;;;;18.74;75.43;101420.56;5045161;28;45483;-74
2023/09/27 03:39:45;;;;;;;;;10.50;9.75;;;;;18.84;75.03;101444.34;5040018;28;46268;-74
2023/09/27 03:42:11;;;;;;;;;11.00;11.00;;;;;18.76;75.55;101427.63;5039929;28;45609;-74
2023/09/27 03:44:36;;;;;;;;;8.75;8.75;;;;;18.69;75.04;101408.19;5056092;28;45505;-74
2023/09/27 03:47:02;;;;;;;;;7.50;7.50;;;;;18.87;75.18;101438.72;5039773;28;45387;-74
2023/09/27 03:49:27;;;;;;;;;8.25;8.25;;;;;18.87;75.32;101446.84;5049007;28;45619;-74
2023/09/27 03:51:52;;;;;;;;;10.75;10.75;;;;;18.68;75.29;101422.66;5025263;28;45607;-74
2023/09/27 03:54:18;;;;;;;;;10.75;9.00;;;;;18.87;76.01;101443.28;5059836;28;45381;-74
2023/09/27 03:56:43;;;;;;;;;10.75;10.50;;;;;18.64;75.46;101404.84;5027893;28;46761;-74
2023/09/27 03:59:08;;;;;;;;;13.75;11.00;;;;;18.86;75.89;101439.72;5039367;28;46071;-74
2023/09/27 04:01:34;;;;;;;;;11.25;10.75;;;;;18.82;75.68;101443.50;5047183;28;45438;-74
2023/09/27 04:04:00;;;;;;;;;14.00;14.00;;;;;18.65;75.83;101409.28;5041061;28;45710;-74
2023/09/27 04:06:25;;;;;;;;;12.25;11.75;;;;;18.81;75.72;101433.66;5051304;28;45722;-74
2023/09/27 04:08:51;;;;;;;;;10.75;10.50;;;;;18.61;76.00;101398.72;5040753;28;45312;-74
2023/09/27 04:11:16;;;;;;;;;13.50;12.00;;;;;18.79;75.72;101430.16;5039954;28;45508;-73
2023/09/27 04:13:42;;;;;;;;;13.25;12.00;;;;;18.72;76.21;101414.38;5049534;28;45271;-74
2023/09/27 04:16:07;;;;;;;;;9.75;9.75;;;;;18.79;76.06;101419.31;5039800;28;45380;-74
2023/09/27 04:18:33;;;;;;;;;14.25;12.50;;;;;18.66;75.95;101400.22;5057711;28;46467;-74
2023/09/27 04:21:06;;;;;;;;;11.50;11.50;;;;;18.73;75.88;101413.38;5047495;28;45476;-74
2023/09/27 04:23:33;;;;;;;;;10.00;9.25;;;;;18.67;75.70;101399.25;5004983;28;45376;-74
2023/09/27 04:25:58;;;;;;;;;10.50;10.50;;;;;18.79;75.96;101419.31;5039336;28;45489;-74
2023/09/27 04:28:24;;;;;;;;;12.75;12.75;;;;;18.85;75.91;101428.97;5044658;28;45324;-74
2023/09/27 04:30:49;;;;;;;;;11.25;10.75;;;;;18.65;76.04;101389.50;5059129;28;45377;-73
2023/09/27 04:33:15;;;;;;;;;11.25;11.25;;;;;18.69;75.94;101399.16;5039258;28;45471;-74
2023/09/27 04:35:40;;;;;;;;;11.00;11.00;;;;;18.85;76.00;101424.44;5037713;28;45669;-74
2023/09/27 04:38:05;;;;;;;;;12.25;10.75;;;;;18.72;75.66;101398.13;5041206;28;53630;-74
2023/09/27 04:40:32;;;;;;;;;11.75;11.50;;;;;18.67;75.69;101391.13;5059043;28;45367;-74
2023/09/27 04:42:58;;;;;;;;;11.00;11.00;;;;;18.84;76.00;101411.88;5043413;28;45492;-74
2023/09/27 04:45:23;;;;;;;;;12.00;9.75;;;;;18.68;75.97;101384.78;5036488;28;45473;-74
2023/09/27 04:47:49;;;;;;;;;9.25;8.25;;;;;18.80;75.76;101415.66;5034157;28;46291;-73
2023/09/27 04:50:15;;;;;;;;;11.25;11.25;;;;;18.89;76.05;101430.53;5040302;28;45951;-74
2023/09/27 04:52:41;;;;;;;;;15.50;12.75;;;;;18.70;75.94;101387.41;5038074;28;45312;-74
2023/09/27 04:55:12;;;;;;;;;15.00;14.25;;;;;18.79;76.27;101416.63;5037517;28;45550;-74
2023/09/27 04:57:38;;;;;;;;;12.50;11.50;;;;;18.70;75.95;101400.94;5046218;28;45516;-74
2023/09/27 05:00:06;;;;;;;;;12.00;12.00;;;;;18.78;75.82;101405.91;5039777;28;45486;-74
2023/09/27 05:02:31;;;;;;;;;14.00;12.50;;;;;18.71;76.05;101405.38;5028677;28;45697;-74
2023/09/27 05:04:57;;;;;;;;;12.50;12.25;;;;;18.61;75.87;101394.22;5037405;28;45424;-73
2023/09/27 05:07:22;;;;;;;;;14.50;12.75;;;;;18.71;75.86;101405.38;5052338;28;46499;-74
2023/09/27 05:09:48;;;;;;;;;12.00;10.75;;;;;18.70;76.17;101407.19;5036502;28;45823;-74
2023/09/27 05:12:14;;;;;;;;;12.25;11.25;;;;;18.52;76.08;101378.50;5039021;28;45322;-74
2023/09/27 05:14:40;;;;;;;;;10.75;10.75;;;;;18.59;75.82;101384.41;5039028;28;45494;-74
2023/09/27 05:17:06;;;;;;;;;10.75;10.75;;;;;18.48;76.03;101369.69;5043659;28;45484;-74
2023/09/27 05:19:31;;;;;;;;;10.00;8.50;;;;;18.54;75.44;101381.09;5038643;28;45419;-74
2023/09/27 05:21:56;;;;;;;;;11.75;11.75;;;;;18.52;75.68;101381.19;5037529;28;45435;-73
2023/09/27 05:24:22;;;;;;;;;8.75;6.75;;;;;18.42;75.48;101369.16;5038360;28;45478;-73
2023/09/27 05:26:50;;;;;;;;;10.25;9.00;;;;;18.56;75.77;101395.41;5043869;28;45411;-78
2023/09/27 05:29:15;;;;;;;;;13.75;11.25;;;;;18.38;75.74;101364.88;5058162;28;45426;-78
2023/09/27 05:31:44;;;;;;;;;11.75;11.75;;;;;18.47;75.82;101385.97;5051681;28;45925;-78
2023/09/27 05:34:12;;;;;;;;;12.50;11.00;;;;;18.46;75.88;101379.72;5032655;28;45485;-78
2023/09/27 05:36:42;;;;;;;;;18.25;13.50;;;;;18.38;75.62;101373.00;5039550;28;45636;-77
2023/09/27 05:39:10;;;;;;;;;11.00;10.75;;;;;18.51;75.59;101395.69;5040010;28;45479;-77
2023/09/27 05:41:36;;;;;;;;;14.00;13.25;;;;;18.44;75.85;101396.97;5036507;28;45518;-77
2023/09/27 05:44:01;;;;;;;;;12.75;11.75;;;;;18.59;75.65;101422.28;5037832;28;45757;-78
2023/09/27 05:46:28;;;;;;;;;10.25;9.00;;;;;18.17;75.59;101361.50;5029717;28;46247;-77
2023/09/27 05:48:54;;;;;;;;;11.00;10.25;;;;;18.52;75.71;101422.59;5040515;28;45622;-77
2023/09/27 05:51:20;;;;;;;;;10.75;10.25;;;;;18.29;75.85;101393.25;5049038;28;45411;-78
2023/09/27 05:53:48;;;;;;;;;13.50;12.50;;;;;18.24;75.29;101382.72;5051256;28;45547;-77
2023/09/27 05:56:13;;;;;;;;;12.75;11.50;;;;;18.30;76.07;101397.72;5033104;28;46283;-77
2023/09/27 05:58:39;;;;;;;;;12.50;11.75;;;;;18.23;75.93;101393.63;5045751;28;45321;-78
2023/09/27 06:01:07;;;;;;;;;13.50;13.50;;;;;18.43;75.93;101439.34;5048387;28;45532;-77
2023/09/27 06:03:41;;;;;;;;;19.25;14.75;;;;;18.25;75.63;101414.19;5053774;28;45362;-75
2023/09/27 06:10:06;;;;;;;;;15.75;13.50;;;;;18.11;75.58;101396.03;5047828;28;45507;-76
2023/09/27 06:13:23;;;;;;;;;14.75;14.50;;;;;18.28;75.73;101424.84;5036301;28;46961;-77
2023/09/27 06:15:53;;;;;;;;;12.50;12.50;;;;;18.19;75.82;101430.72;5042856;28;45257;-78
2023/09/27 06:18:21;;;;;;;;;15.50;13.50;;;;;18.05;75.73;101398.19;5052265;28;45699;-81
2023/09/27 06:21:10;;;;;;;;;12.25;12.25;;;;;18.03;76.30;101400.97;5050551;28;46559;-83
2023/09/27 06:23:57;;;;;;;;;14.00;13.75;;;;;18.22;76.38;101429.69;5044352;28;45402;-80
2023/09/27 06:26:23;;;;;;;;;13.25;13.25;;;;;18.04;76.01;101396.41;5043819;28;45325;-78
2023/09/27 06:28:48;;;;;;;;;18.00;13.25;;;;;17.98;76.26;101396.75;5043650;28;46288;-81
2023/09/27 06:31:13;;;;;;;;;16.50;13.75;;;;;18.25;76.23;101445.75;5025371;28;45711;-81
2023/09/27 06:33:39;;;;;;;;;12.00;12.00;;;;;18.47;76.17;101484.16;5041878;28;45375;-80
2023/09/27 06:36:08;;;;;;;;;13.50;12.75;;;;;18.12;76.46;101415.78;5040927;28;45331;-79
2023/09/27 06:38:36;;;;;;;;;17.00;16.25;;;;;18.32;76.47;101449.84;5050042;28;46492;-81
2023/09/27 06:41:02;;;;;;;;;14.75;14.75;;;;;18.40;76.45;101458.44;5049692;28;45508;-73
2023/09/27 06:43:28;;;;;;;;;15.50;13.25;;;;;18.41;76.54;101464.69;5053017;28;45508;-73
2023/09/27 06:45:53;;;;;;;;;18.50;15.50;;;;;18.26;76.43;101439.38;5043544;28;45448;-72
2023/09/27 06:48:28;;;;;;;;;16.00;13.25;;;;;18.20;76.65;101445.13;5049834;28;45454;-74
2023/09/27 06:50:55;;;;;;;;;14.75;14.50;;;;;18.15;76.55;101430.00;5030825;28;45625;-72
2023/09/27 06:53:21;;;;;;;;;17.25;14.75;;;;;18.22;76.36;101445.91;5052841;28;45256;-72
2023/09/27 06:55:49;;;;;;;;;17.25;14.00;;;;;18.14;76.85;101436.38;5037200;28;45633;-73
2023/09/27 06:58:23;;;;;;;;;19.25;16.00;;;;;18.30;76.96;101460.75;5040158;28;46604;-72
2023/09/27 07:00:51;;;;;;;;;15.00;13.00;;;;;18.00;76.88;101413.75;5022417;28;45307;-72
2023/09/27 07:03:19;;;;;;;;;13.50;13.00;;;;;18.30;76.75;101463.44;5050088;28;45479;-72
2023/09/27 07:05:46;;;;;;;;;16.75;16.00;;;;;18.13;77.29;101437.31;5046925;28;45409;-72
2023/09/27 07:08:40;;;;;;;;;15.00;14.00;;;;;18.42;76.84;101477.28;5047246;28;46207;-74
2023/09/27 07:11:08;;;;;;;;;17.00;15.75;;;;;18.20;77.22;101442.41;5022348;28;45340;-72
2023/09/27 07:13:45;;;;;;;;;15.25;14.25;;;;;18.37;77.66;101461.28;5031220;28;45583;-71
2023/09/27 07:16:29;;;;;;;;;15.50;14.25;;;;;18.35;77.77;101455.09;5045653;28;45505;-69
2023/09/27 07:18:59;;;;;;;;;16.00;15.75;;;;;18.21;77.36;101430.63;5051813;28;45615;-69
2023/09/27 07:21:25;;;;;;;;;16.00;13.75;;;;;18.41;77.47;101456.59;5038213;28;45860;-69
2023/09/27 07:23:52;;;;;;;;;16.50;13.00;;;;;18.27;77.41;101427.63;5052749;28;45565;-69
2023/09/27 07:26:17;;;;;;;;;13.00;11.50;;;;;18.27;77.86;101428.47;5041306;28;45648;-70
2023/09/27 07:28:43;;;;;;;;;14.75;14.25;;;;;18.30;77.59;101428.31;5038176;28;48233;-74
2023/09/27 07:31:14;;;;;;;;;11.75;11.75;;;;;18.46;77.44;101452.69;5050244;28;46798;-69
2023/09/27 07:33:54;;;;;;;;;14.25;12.75;;;;;18.36;77.34;101427.13;5056970;28;45334;-71
2023/09/27 07:36:29;;;;;;;;;16.50;14.50;;;;;18.35;77.76;101425.38;5037928;28;45420;-69
2023/09/27 07:38:57;;;;;;;;;14.50;14.00;;;;;18.40;78.34;101425.13;5054767;28;46459;-68
2023/09/27 07:41:27;;;;;;;;;13.50;12.75;;;;;18.43;78.45;101428.53;5049729;28;45355;-70
2023/09/27 07:43:53;;;;;;;;;15.25;13.00;;;;;18.41;78.94;101414.22;5059390;28;45312;-68
2023/09/27 07:46:19;;;;;;;;;17.50;14.75;;;;;18.50;78.38;101427.22;5057550;28;45511;-68
2023/09/27 07:48:45;;;;;;;;;12.00;8.00;;;;;18.67;78.09;101449.78;5043089;28;46950;-68
2023/09/27 07:51:11;;;;;;;;;19.00;18.50;;;;;18.52;78.37;101419.91;5039609;28;45700;-68
2023/09/27 07:53:37;;;;;;;;;14.00;14.00;;;;;18.67;78.43;101439.81;5038374;28;45554;-69
2023/09/27 07:56:03;;;;;;;;;19.75;15.50;;;;;18.82;78.27;101459.72;5038234;28;45567;-69
2023/09/27 07:58:29;;;;;;;;;15.00;12.00;;;;;18.67;78.18;101420.88;5033625;28;48039;-68
2023/09/27 08:00:54;;;;;;;;;19.50;18.00;;;;;18.77;78.32;101428.50;5040160;28;45526;-68
2023/09/27 08:03:21;;;;;;;;;20.00;19.25;;;;;18.91;78.12;101433.16;5028233;28;45498;-69
2023/09/27 08:05:49;;;;;;;;;19.75;18.75;;;;;18.84;77.83;101424.50;5044830;28;45513;-69
2023/09/27 08:08:15;;;;;;;;;16.50;16.50;;;;;19.05;78.23;101447.66;5051453;28;47252;-67
2023/09/27 08:10:45;;;;;;;;;16.75;16.75;;;;;18.91;78.17;101420.53;5028030;28;45763;-67
2023/09/27 08:13:13;;;;;;;;;20.00;18.25;;;;;19.11;77.64;101441.03;5053628;28;45339;-72
2023/09/27 08:15:43;;;;;;;;;19.25;17.50;;;;;19.18;77.32;101439.72;5038068;28;45534;-72
2023/09/27 08:18:08;;;;;;;;;22.50;21.00;;;;;19.04;77.71;101407.16;5055521;28;46407;-69
2023/09/27 08:20:35;;;;;;;;;19.25;17.50;;;;;19.22;77.27;101437.69;5038506;28;45445;-68
2023/09/27 08:23:01;;;;;;;;;21.50;21.50;;;;;19.29;77.34;101439.06;5042517;28;45584;-71
2023/09/27 08:25:26;;;;;;;;;16.75;16.75;;;;;19.23;77.15;101412.41;5041404;28;45509;-68
2023/09/27 08:27:52;;;;;;;;;13.75;13.75;;;;;19.20;77.46;101404.44;5020944;28;47870;-68
2023/09/27 08:30:19;;;;;;;;;17.75;15.50;;;;;19.25;77.34;101411.31;5048078;28;45340;-68
2023/09/27 08:32:45;;;;;;;;;15.50;15.50;;;;;19.30;76.71;101396.66;5039072;28;45394;-68
2023/09/27 08:35:10;;;;;;;;;20.75;17.25;;;;;19.34;76.78;101392.81;5040229;28;45255;-68
2023/09/27 08:37:36;;;;;;;;;19.25;17.25;;;;;19.39;76.58;101386.13;5039678;28;46003;-68
2023/09/27 08:40:05;;;;;;;;;19.50;17.25;;;;;19.56;76.45;101405.94;5026713;28;45339;-68
2023/09/27 08:42:31;;;;;;;;;18.50;17.00;;;;;19.61;76.26;101406.53;5040786;28;45371;-69
2023/09/27 08:44:57;;;;;;;;;20.50;18.50;;;;;19.49;76.70;101370.22;5055563;28;45269;-68
2023/09/27 08:47:23;;;;;;;;;19.00;18.25;;;;;19.65;76.88;101391.00;5050193;28;45531;-69
2023/09/27 08:49:51;;;;;;;;;18.75;17.00;;;;;19.58;76.80;101371.53;5047398;28;46875;-69
2023/09/27 08:52:17;;;;;;;;;19.00;18.25;;;;;19.54;76.04;101348.28;5040520;28;45427;-69
2023/09/27 08:54:43;;;;;;;;;15.25;13.50;;;;;19.68;76.36;101355.56;5040517;28;45494;-69
2023/09/27 08:57:10;;;;;;;;;16.00;14.50;;;;;19.73;75.81;101354.34;5049946;28;45985;-68
2023/09/27 08:59:36;;;;;;;;;14.50;14.00;;;;;19.73;75.86;101340.81;5039663;28;46068;-68
2023/09/27 09:02:05;;;;;;;;;18.00;14.75;;;;;20.01;75.93;101373.47;5056472;28;45295;-71
2023/09/27 09:04:32;;;;;;;;;15.75;12.75;;;;;20.03;75.61;101364.28;5038396;28;45486;-69
2023/09/27 09:06:58;;;;;;;;;13.00;13.00;;;;;19.91;75.15;101329.81;5047399;28;45506;-72
2023/09/27 09:09:26;;;;;;;;;14.50;13.25;;;;;20.14;75.42;101359.03;5040113;28;45494;-69
2023/09/27 09:11:57;;;;;;;;;14.25;12.50;;;;;20.02;74.65;101330.03;5030056;28;45453;-69
2023/09/27 09:14:44;;;;;;;;;14.25;12.25;;;;;20.21;74.08;101359.53;5042257;28;45373;-69
2023/09/27 09:17:11;;;;;;;;;10.25;10.25;;;;;20.11;73.77;101333.97;5024198;28;47590;-69
2023/09/27 09:19:38;;;;;;;;;10.75;9.75;;;;;20.30;73.77;101361.66;5031701;28;45404;-69
2023/09/27 09:22:08;;;;;;;;;9.75;9.25;;;;;20.31;73.48;101352.59;5026430;28;45297;-69
2023/09/27 09:24:41;;;;;;;;;10.00;10.00;;;;;20.30;73.71;101345.41;5027262;28;45415;-69
2023/09/27 09:27:13;;;;;;;;;11.75;10.00;;;;;20.36;73.62;101349.56;5049484;28;46160;-69
2023/09/27 09:29:46;;;;;;;;;9.75;9.25;;;;;20.37;73.37;101340.47;5060914;28;45332;-69
2023/09/27 09:32:23;;;;;;;;;12.25;12.25;;;;;20.41;74.08;101344.69;5056184;28;45311;-69
2023/09/27 09:34:50;;;;;;;;;13.00;11.25;;;;;20.45;73.70;101342.69;5052777;28;45569;-69
2023/09/27 09:37:22;;;;;;;;;12.75;12.75;;;;;20.55;73.39;101341.97;5041324;28;48732;-69
2023/09/27 09:39:50;;;;;;;;;11.50;11.00;;;;;20.58;73.86;101338.22;5049426;28;45509;-69
2023/09/27 09:42:34;;;;;;;;;12.25;8.75;;;;;20.48;72.54;101309.94;5038187;28;45534;-68
2023/09/27 09:45:01;;;;;;;;;12.00;10.00;;;;;20.78;73.14;101349.59;5041620;28;45339;-69
2023/09/27 09:47:28;;;;;;;;;9.25;9.25;;;;;20.66;72.69;101322.31;5058110;28;45399;-69
2023/09/27 09:49:54;;;;;;;;;12.00;10.00;;;;;20.61;72.92;101305.44;5061428;28;45489;-69
2023/09/27 09:52:30;;;;;;;;;11.50;10.00;;;;;20.90;72.97;101338.81;5035164;28;45424;-69
2023/09/27 09:54:57;;;;;;;;;10.50;8.50;;;;;20.98;72.87;101341.03;5041080;28;45768;-69
2023/09/27 09:57:35;;;;;;;;;10.00;10.00;;;;;21.10;72.45;101340.22;5041250;28;47952;-69
2023/09/27 10:02:51;;;;;;;;;7.75;7.75;;;;;21.12;71.29;101296.69;5052820;28;45404;-69
2023/09/27 10:05:23;;;;;;;;;7.75;6.75;;;;;21.12;71.69;101293.97;5042896;28;45643;-69
2023/09/27 10:07:51;;;;;;;;;6.50;6.50;;;;;21.38;71.23;101315.72;5043715;28;45612;-69
2023/09/27 10:10:18;;;;;;;;;7.25;7.25;;;;;21.42;70.48;101300.97;5035573;28;45534;-69
2023/09/27 10:12:46;;;;;;;;;8.75;8.00;;;;;21.39;71.13;101279.47;5050228;28;45443;-69
2023/09/27 10:15:16;;;;;;;;;10.00;8.50;;;;;21.45;70.38;101273.59;5043649;28;45363;-69
2023/09/27 10:17:41;;;;;;;;;8.75;8.50;;;;;21.30;70.14;101229.38;5051925;28;45680;-68
2023/09/27 10:20:12;;;;;;;;;10.00;7.50;;;;;21.70;69.82;101272.78;5042902;28;45364;-68
2023/09/27 10:22:45;;;;;;;;;8.00;7.25;;;;;21.67;70.27;101253.09;5026361;28;45479;-69
2023/09/27 10:25:23;;;;;;;;;10.25;9.50;;;;;21.86;69.98;101268.97;5041821;28;45487;-69
2023/09/27 10:28:01;;;;;;;;;7.25;6.25;;;;;21.93;69.61;101267.53;5030262;28;47148;-69
2023/09/27 10:30:48;;;;;;;;;9.00;7.00;;;;;21.92;69.59;101258.53;5042305;28;45348;-69
2023/09/27 10:33:22;;;;;;;;;9.25;8.00;;;;;22.06;69.79;101276.53;5029604;28;45511;-68
2023/09/27 10:36:11;;;;;;;;;12.00;10.00;;;;;22.11;69.41;101276.22;5046643;28;45729;-69
2023/09/27 10:38:42;;;;;;;;;7.00;7.00;;;;;22.21;69.06;101275.41;5054024;28;46148;-69
2023/09/27 10:41:08;;;;;;;;;8.50;8.50;;;;;22.08;68.62;101244.66;5048468;28;45517;-69
2023/09/27 10:43:38;;;;;;;;;10.50;8.00;;;;;22.31;68.47;101277.50;5058889;28;45379;-69
2023/09/27 10:46:04;;;;;;;;;7.50;5.75;;;;;22.36;68.51;101267.16;5053180;28;45385;-69
2023/09/27 10:48:30;;;;;;;;;8.75;5.25;;;;;22.20;67.96;101234.75;5043928;28;46435;-69
2023/09/27 10:50:56;;;;;;;;;9.50;9.00;;;;;22.33;67.74;101238.31;5052967;28;45428;-69
2023/09/27 10:53:22;;;;;;;;;7.75;7.75;;;;;22.35;66.79;101235.50;5059186;28;45359;-69
2023/09/27 10:55:48;;;;;;;;;7.25;6.00;;;;;22.45;66.34;101246.56;5064983;28;45318;-69
2023/09/27 10:58:20;;;;;;;;;7.50;6.75;;;;;22.43;66.62;101224.91;5037115;28;47648;-68
2023/09/27 11:00:49;;;;;;;;;9.25;7.50;;;;;22.78;65.75;101264.94;5035282;28;45374;-69
2023/09/27 11:03:16;;;;;;;;;11.25;9.00;;;;;22.69;65.68;101243.88;5030925;28;45343;-69
2023/09/27 11:05:42;;;;;;;;;8.25;8.00;;;;;22.74;65.28;101244.38;5022933;28;45447;-69
2023/09/27 11:08:07;;;;;;;;;7.00;7.00;;;;;22.83;65.03;101246.38;5037791;28;47502;-69
2023/09/27 11:10:33;;;;;;;;;6.75;6.75;;;;;22.91;65.26;101260.28;5033498;28;45470;-69
2023/09/27 11:13:12;;;;;;;;;6.00;6.00;;;;;22.90;64.73;101246.78;5029813;28;45457;-69
2023/09/27 11:15:41;;;;;;;;;6.00;5.00;;;;;23.08;65.35;101269.91;5029204;28;45517;-69
2023/09/27 11:18:07;;;;;;;;;6.25;6.25;;;;;22.96;63.72;101226.41;5037715;28;48325;-69
2023/09/27 11:20:34;;;;;;;;;9.75;7.50;;;;;23.19;62.97;101254.59;5037058;28;45625;-69
2023/09/27 11:23:02;;;;;;;;;5.50;4.75;;;;;23.30;62.84;101262.81;5027453;28;45634;-69